Time;durP1;ratioP1;P1;durP2;ratioP2;P2;SDS_P1;SDS_P2;PMS_P1;PMS_P2;Temp;Humidity;BMP_temperature;BMP_pressure;BME280_temperature;BME280_humidity;BME280_pressure;Samples;Min_cycle;Max_cycle;Signal;HPM_P1;HPM_P2
2023/08/04 00:00:18;;;;;;;63.10;59.72;;;;;;;20.05;56.97;100942.78;4988202;28;20031;-75
2023/08/04 00:02:43;;;;;;;64.78;61.22;;;;;;;20.04;57.07;100946.66;4987340;28;20395;-75
2023/08/04 00:05:09;;;;;;;63.38;60.05;;;;;;;20.04;57.02;100945.84;4984953;28;20034;-75
2023/08/04 00:07:36;;;;;;;65.43;61.67;;;;;;;20.02;56.82;100945.34;5003322;28;20379;-78
2023/08/04 00:10:03;;;;;;;61.78;58.08;;;;;;;20.01;56.97;100943.72;4987324;28;20026;-76
2023/08/04 00:12:29;;;;;;;63.03;59.42;;;;;;;19.99;56.83;100945.94;5000731;28;20085;-77
2023/08/04 00:14:55;;;;;;;64.53;61.08;;;;;;;19.97;56.84;100948.97;4989246;28;20059;-75
2023/08/04 00:17:20;;;;;;;65.38;61.83;;;;;;;19.97;56.64;100937.19;5003741;28;20458;-75
2023/08/04 00:19:46;;;;;;;63.83;60.60;;;;;;;19.95;57.15;100953.94;4988236;28;20039;-76
2023/08/04 00:22:11;;;;;;;66.57;61.67;;;;;;;19.93;57.06;100947.13;4989632;28;20386;-76
2023/08/04 00:24:37;;;;;;;65.50;61.80;;;;;;;19.93;57.06;100947.94;4987696;28;20485;-76
2023/08/04 00:27:02;;;;;;;64.15;60.60;;;;;;;19.91;57.00;100944.72;4982952;28;20379;-76
2023/08/04 00:29:28;;;;;;;62.30;59.10;;;;;;;19.89;56.68;100942.25;4985982;28;20121;-76
2023/08/04 00:31:54;;;;;;;63.75;60.35;;;;;;;19.89;57.19;100945.00;5000267;28;20716;-75
2023/08/04 00:34:20;;;;;;;62.13;58.75;;;;;;;19.88;56.56;100942.53;4984638;28;20043;-75
2023/08/04 00:36:46;;;;;;;64.63;60.70;;;;;;;19.87;56.97;100946.41;4979461;28;20034;-76
2023/08/04 00:39:13;;;;;;;63.45;60.22;;;;;;;19.84;56.73;100947.81;4988496;28;20400;-76
2023/08/04 00:41:39;;;;;;;64.80;61.47;;;;;;;19.83;57.02;100950.84;4984456;28;20383;-76
2023/08/04 00:44:05;;;;;;;65.57;61.80;;;;;;;19.82;57.06;100947.31;4999105;28;20088;-78
2023/08/04 00:46:31;;;;;;;61.72;58.72;;;;;;;19.80;56.95;100955.00;4987288;28;20038;-75
2023/08/04 00:48:59;;;;;;;61.47;58.13;;;;;;;19.80;56.77;100954.19;4986574;28;20050;-75
2023/08/04 00:51:24;;;;;;;60.40;57.30;;;;;;;19.77;56.64;100950.13;4991671;28;20038;-74
2023/08/04 00:53:50;;;;;;;61.40;58.17;;;;;;;19.76;56.98;100959.47;4984037;28;20022;-75
2023/08/04 00:56:15;;;;;;;63.65;60.13;;;;;;;19.76;56.74;100964.16;4988297;28;20049;-74
2023/08/04 00:58:41;;;;;;;62.17;58.97;;;;;;;19.75;56.65;100965.25;4991780;28;20093;-74
2023/08/04 01:01:06;;;;;;;60.22;57.10;;;;;;;19.72;56.71;100963.91;4993777;28;20034;-74
2023/08/04 01:03:33;;;;;;;62.88;59.40;;;;;;;19.72;56.87;100965.84;4984154;28;20183;-75
2023/08/04 01:06:22;;;;;;;61.53;58.13;;;;;;;19.70;56.82;100959.84;4994498;28;20049;-74
2023/08/04 01:09:00;;;;;;;63.08;59.75;;;;;;;19.67;56.84;100970.28;4984838;28;20500;-74
2023/08/04 01:11:32;;;;;;;61.58;57.60;;;;;;;19.65;56.93;100967.03;4974945;28;20451;-74
2023/08/04 01:13:58;;;;;;;59.90;56.70;;;;;;;19.65;57.12;100968.94;4990695;28;20038;-76
2023/08/04 01:16:24;;;;;;;62.80;59.42;;;;;;;19.63;57.00;100973.88;4989521;28;20540;-74
2023/08/04 01:18:49;;;;;;;61.95;58.53;;;;;;;19.62;56.69;100975.81;4975151;28;20054;-74
2023/08/04 01:21:15;;;;;;;62.58;58.67;;;;;;;19.61;56.86;100984.34;4992733;28;20038;-74
2023/08/04 01:23:40;;;;;;;60.60;57.35;;;;;;;19.61;57.16;100984.34;4984587;28;20118;-75
2023/08/04 01:26:09;;;;;;;61.15;58.00;;;;;;;19.59;57.08;100972.88;4985907;28;20042;-74
2023/08/04 01:28:34;;;;;;;;;;;;;;;19.57;56.70;100978.63;4990373;28;20042;-74
2023/08/04 01:31:01;;;;;;;57.22;54.28;;;;;;;19.55;56.83;100986.34;4997455;28;19922;-74
2023/08/04 01:33:29;;;;;;;60.25;57.05;;;;;;;19.52;56.69;100980.66;4991660;28;20125;-74
2023/08/04 01:35:54;;;;;;;61.08;57.47;;;;;;;19.52;56.92;100986.13;4991568;28;20121;-74
2023/08/04 01:38:20;;;;;;;59.25;55.60;;;;;;;19.51;57.18;100981.78;4991522;28;20125;-74
2023/08/04 01:40:46;;;;;;;61.03;57.78;;;;;;;19.50;56.45;100982.88;4994122;28;20382;-75
2023/08/04 01:43:11;;;;;;;60.80;57.17;;;;;;;19.49;57.01;100992.22;4988579;28;20125;-75
2023/08/04 01:45:36;;;;;;;62.40;58.80;;;;;;;19.47;57.02;100992.50;4983488;28;20038;-76
2023/08/04 01:48:02;;;;;;;65.07;61.20;;;;;;;19.46;56.83;100985.41;4986707;28;20034;-75
2023/08/04 01:50:28;;;;;;;61.80;58.28;;;;;;;19.46;57.06;100996.34;4980459;28;20043;-75
2023/08/04 01:52:54;;;;;;;60.83;57.60;;;;;;;19.44;57.01;100988.41;4981303;28;20064;-74
2023/08/04 01:55:19;;;;;;;60.35;57.15;;;;;;;19.45;56.83;100994.72;5003394;28;20493;-74
2023/08/04 01:57:45;;;;;;;59.95;56.58;;;;;;;19.42;57.06;100998.84;4982030;28;20042;-74
2023/08/04 02:00:11;;;;;;;58.22;55.03;;;;;;;19.42;56.77;100995.31;4985451;28;20042;-74
2023/08/04 02:02:36;;;;;;;60.60;56.83;;;;;;;19.40;56.60;100998.34;4993736;28;20046;-74
2023/08/04 02:05:01;;;;;;;58.53;54.80;;;;;;;19.40;56.98;100994.78;4983253;28;20038;-74
2023/08/04 02:07:27;;;;;;;59.40;56.05;;;;;;;19.39;57.12;101004.94;4995371;28;20486;-74
2023/08/04 02:09:52;;;;;;;62.13;58.80;;;;;;;19.38;56.66;101005.25;4986598;28;20049;-74
2023/08/04 02:12:18;;;;;;;57.72;54.83;;;;;;;19.36;57.20;101002.78;4989421;28;20446;-74
2023/08/04 02:14:44;;;;;;;58.28;55.22;;;;;;;19.36;57.07;101008.28;4990536;28;20046;-75
2023/08/04 02:17:12;;;;;;;58.28;55.08;;;;;;;19.35;56.94;101014.88;4986649;28;20062;-74
2023/08/04 02:19:37;;;;;;;57.97;54.90;;;;;;;19.34;57.13;101010.47;4988388;28;20039;-75
2023/08/04 02:22:03;;;;;;;59.72;56.25;;;;;;;19.32;57.20;101012.69;4976030;28;20610;-74
2023/08/04 02:24:28;;;;;;;57.65;54.70;;;;;;;19.33;56.74;101016.28;4988109;28;20081;-75
2023/08/04 02:26:54;;;;;;;60.53;57.25;;;;;;;19.32;57.13;101022.84;4985373;28;20050;-74
2023/08/04 02:29:19;;;;;;;57.45;54.45;;;;;;;19.30;57.12;101028.59;4987015;28;20030;-74
2023/08/04 02:31:44;;;;;;;59.65;56.33;;;;;;;19.30;56.70;101025.06;4990492;28;20519;-79
2023/08/04 02:34:10;;;;;;;58.35;55.35;;;;;;;19.29;57.05;101032.47;4988995;28;20035;-74
2023/08/04 02:36:35;;;;;;;60.28;56.92;;;;;;;19.27;57.10;101023.72;4990525;28;20207;-75
2023/08/04 02:39:01;;;;;;;58.63;55.08;;;;;;;19.27;57.18;101034.69;4966655;28;20042;-74
2023/08/04 02:41:26;;;;;;;57.80;54.60;;;;;;;19.26;56.75;101035.78;4995239;28;20454;-74
2023/08/04 02:43:52;;;;;;;60.88;57.22;;;;;;;19.25;57.16;101031.41;4993870;28;20046;-74
2023/08/04 02:46:17;;;;;;;60.78;57.78;;;;;;;19.24;56.72;101035.28;4988571;28;20035;-74
2023/08/04 02:48:43;;;;;;;60.05;56.13;;;;;;;19.23;56.96;101036.38;4989916;28;20140;-74
2023/08/04 02:51:10;;;;;;;61.45;57.95;;;;;;;19.21;57.01;101039.41;4993684;28;20034;-74
2023/08/04 02:53:39;;;;;;;59.90;56.70;;;;;;;19.21;57.00;101033.13;4988035;28;20108;-75
2023/08/04 02:56:08;;;;;;;;;;;;;;;19.20;56.75;101039.69;4980429;28;20035;-75
2023/08/04 02:58:34;;;;;;;55.35;52.35;;;;;;;19.18;56.77;101037.25;4987161;28;19917;-74
2023/08/04 03:00:59;;;;;;;59.15;55.70;;;;;;;19.16;57.10;101036.75;4980411;28;20038;-74
2023/08/04 03:03:25;;;;;;;56.38;53.38;;;;;;;19.15;56.76;101023.31;4986191;28;20034;-74
2023/08/04 03:05:50;;;;;;;60.00;56.90;;;;;;;19.14;56.97;101030.72;4990305;28;20925;-74
2023/08/04 03:08:15;;;;;;;62.17;58.72;;;;;;;19.14;57.12;101033.47;4987116;28;20034;-74
2023/08/04 03:10:42;;;;;;;60.33;57.17;;;;;;;19.13;56.76;101034.59;4990117;28;20041;-76
2023/08/04 03:13:08;;;;;;;58.05;54.85;;;;;;;19.12;57.21;101035.69;4985705;28;20360;-78
2023/08/04 03:15:34;;;;;;;60.05;56.05;;;;;;;19.13;57.25;101033.78;4989426;28;20054;-74
2023/08/04 03:18:00;;;;;;;60.58;57.28;;;;;;;19.11;57.22;101036.81;4988277;28;20393;-74
2023/08/04 03:20:25;;;;;;;59.47;56.05;;;;;;;19.11;57.22;101028.59;4980802;28;20390;-74
2023/08/04 03:22:51;;;;;;;56.85;53.35;;;;;;;19.11;56.86;101030.53;4982726;28;20046;-74
2023/08/04 03:25:16;;;;;;;59.85;56.20;;;;;;;19.10;57.33;101042.56;4976807;28;20431;-75
2023/08/04 03:27:41;;;;;;;60.03;56.78;;;;;;;19.09;57.11;101040.94;5000758;28;20034;-74
2023/08/04 03:30:07;;;;;;;60.55;57.33;;;;;;;19.09;56.80;101043.69;4989956;28;20471;-74
2023/08/04 03:32:33;;;;;;;60.30;56.95;;;;;;;19.07;56.78;101043.16;4991451;28;20045;-74
2023/08/04 03:34:58;;;;;;;60.38;56.80;;;;;;;19.07;57.16;101043.16;4984305;28;20116;-74
2023/08/04 03:37:24;;;;;;;57.70;54.72;;;;;;;19.05;57.04;101040.72;4979300;28;20133;-78
2023/08/04 03:39:49;;;;;;;58.67;55.67;;;;;;;19.06;57.13;101044.28;4988717;28;20070;-77
2023/08/04 03:42:14;;;;;;;60.33;56.83;;;;;;;19.05;57.03;101039.88;4988251;28;20034;-76
2023/08/04 03:44:40;;;;;;;57.25;54.33;;;;;;;19.05;56.73;101039.88;4990637;28;20057;-74
2023/08/04 03:47:05;;;;;;;58.40;54.13;;;;;;;19.03;57.12;101037.47;4988869;28;20034;-75
2023/08/04 03:49:31;;;;;;;55.97;52.55;;;;;;;19.02;57.20;101039.38;4986661;28;20049;-74
2023/08/04 03:51:56;;;;;;;57.72;54.53;;;;;;;19.02;56.92;101046.75;4994509;28;20039;-74
2023/08/04 03:54:22;;;;;;;57.40;53.88;;;;;;;19.00;57.14;101055.28;4985885;28;20463;-74
2023/08/04 03:56:47;;;;;;;59.33;56.22;;;;;;;19.00;56.88;101049.81;4986516;28;20043;-74
2023/08/04 03:59:12;;;;;;;55.13;51.88;;;;;;;18.99;56.82;101056.38;4987902;28;20120;-74
2023/08/04 04:01:38;;;;;;;57.35;54.28;;;;;;;18.99;57.10;101052.81;4973328;28;20126;-74
2023/08/04 04:04:04;;;;;;;58.80;55.05;;;;;;;18.98;57.08;101057.50;4991246;28;20038;-74
2023/08/04 04:06:29;;;;;;;56.40;53.00;;;;;;;18.98;57.28;101057.50;4988777;28;20109;-76
2023/08/04 04:08:55;;;;;;;59.42;55.92;;;;;;;18.97;57.23;101058.59;5000207;28;20081;-75
2023/08/04 04:11:20;;;;;;;56.78;53.58;;;;;;;18.96;57.23;101056.97;4991559;28;20125;-75
2023/08/04 04:13:46;;;;;;;56.28;53.20;;;;;;;18.96;56.80;101056.16;5008181;28;20034;-75
2023/08/04 04:16:11;;;;;;;57.08;53.80;;;;;;;18.95;56.80;101063.56;4992671;28;20816;-75
2023/08/04 04:18:36;;;;;;;58.10;54.58;;;;;;;18.94;56.81;101061.09;4981757;28;20038;-74
2023/08/04 04:21:02;;;;;;;59.22;56.15;;;;;;;18.93;57.28;101059.47;4984090;28;20136;-74
2023/08/04 04:23:28;;;;;;;56.40;53.40;;;;;;;18.93;56.93;101057.56;4979251;28;20475;-74
2023/08/04 04:25:53;;;;;;;59.03;55.35;;;;;;;18.92;57.33;101066.84;4979937;28;20443;-75
2023/08/04 04:28:19;;;;;;;58.53;54.92;;;;;;;18.92;56.78;101066.03;4989693;28;20031;-74
2023/08/04 04:30:44;;;;;;;57.10;53.70;;;;;;;18.91;57.40;101067.97;4988860;28;20494;-74
2023/08/04 04:33:10;;;;;;;58.35;55.28;;;;;;;18.90;56.91;101069.09;5004317;28;20112;-74
2023/08/04 04:35:35;;;;;;;56.38;53.13;;;;;;;18.90;56.78;101076.47;4989244;28;20042;-74
2023/08/04 04:38:01;;;;;;;58.28;54.67;;;;;;;18.90;57.07;101076.47;5001590;28;20070;-74
2023/08/04 04:40:26;;;;;;;58.88;55.63;;;;;;;18.89;57.02;101074.84;4982536;28;20383;-74
2023/08/04 04:42:52;;;;;;;56.45;53.22;;;;;;;18.87;57.36;101071.56;4988050;28;20188;-74
2023/08/04 04:45:17;;;;;;;59.42;55.92;;;;;;;18.86;57.41;101070.75;4998302;28;20038;-74
2023/08/04 04:47:43;;;;;;;59.03;55.53;;;;;;;18.87;57.04;101080.59;4984731;28;20042;-74
2023/08/04 04:50:09;;;;;;;59.58;56.22;;;;;;;18.88;56.85;101081.44;4978182;28;20049;-75
2023/08/04 04:52:36;;;;;;;57.88;54.78;;;;;;;18.85;57.11;101082.81;5004235;28;20046;-73
2023/08/04 04:55:03;;;;;;;57.83;54.80;;;;;;;18.86;56.86;101087.19;4979814;28;20093;-73
2023/08/04 04:57:29;;;;;;;56.65;53.17;;;;;;;18.85;56.86;101091.03;4981804;28;20292;-74
2023/08/04 04:59:55;;;;;;;56.33;53.10;;;;;;;18.85;57.14;101095.69;4979916;28;20390;-74
2023/08/04 05:02:21;;;;;;;58.17;54.78;;;;;;;18.85;57.02;101091.03;4984496;28;20486;-74
2023/08/04 05:04:46;;;;;;;59.30;56.08;;;;;;;18.84;57.19;101100.34;4987558;28;20051;-74
2023/08/04 05:07:12;;;;;;;59.83;56.15;;;;;;;18.84;57.02;101102.25;4976489;28;20109;-77
2023/08/04 05:09:38;;;;;;;57.35;54.28;;;;;;;18.84;57.43;101105.81;4996293;28;20030;-74
2023/08/04 05:12:05;;;;;;;60.05;56.90;;;;;;;18.83;57.06;101106.13;4981795;28;20038;-75
2023/08/04 05:14:30;;;;;;;57.67;54.60;;;;;;;18.82;57.04;101105.28;4979591;28;20101;-74
2023/08/04 05:16:55;;;;;;;57.80;54.55;;;;;;;18.82;57.03;101113.50;4972039;28;20484;-74
2023/08/04 05:19:21;;;;;;;57.70;54.15;;;;;;;18.81;57.06;101109.94;4986715;28;20038;-75
2023/08/04 05:21:46;;;;;;;57.85;54.42;;;;;;;18.81;57.31;101115.41;5003947;28;20113;-73
2023/08/04 05:24:12;;;;;;;57.65;54.55;;;;;;;18.80;57.31;101119.28;4974172;28;20038;-74
2023/08/04 05:26:38;;;;;;;57.63;54.22;;;;;;;18.81;57.36;101115.41;4987943;28;20463;-74
2023/08/04 05:29:03;;;;;;;53.53;50.67;;;;;;;18.80;57.46;101124.75;5001522;28;20042;-74
2023/08/04 05:31:28;;;;;;;55.42;52.33;;;;;;;18.80;57.31;101116.53;4999194;28;20035;-74
2023/08/04 05:33:56;;;;;;;56.50;53.17;;;;;;;18.79;57.16;101114.06;4982140;28;20045;-74
2023/08/04 05:36:23;;;;;;;56.00;53.00;;;;;;;18.80;57.52;101123.94;4991752;28;20121;-74
2023/08/04 05:38:48;;;;;;;56.95;53.45;;;;;;;18.79;57.23;101117.63;4979245;28;20045;-74
2023/08/04 05:41:14;;;;;;;58.90;55.70;;;;;;;18.79;57.49;101125.03;4981861;28;20034;-74
2023/08/04 05:43:39;;;;;;;55.22;52.55;;;;;;;18.79;57.16;101122.28;4990857;28;20124;-77
2023/08/04 05:46:04;;;;;;;57.92;54.58;;;;;;;18.79;57.18;101122.28;5008162;28;20030;-76
2023/08/04 05:48:34;;;;;;;55.95;53.03;;;;;;;18.78;57.36;101121.47;4970194;28;20133;-75
2023/08/04 05:50:59;;;;;;;55.40;52.45;;;;;;;18.77;57.44;101119.84;4984976;28;20039;-74
2023/08/04 05:53:25;;;;;;;55.03;52.22;;;;;;;18.78;57.45;101126.13;4980405;28;20053;-77
2023/08/04 05:55:51;;;;;;;54.17;51.38;;;;;;;18.78;57.32;101132.44;5001946;28;20092;-74
2023/08/04 05:58:17;;;;;;;58.08;54.47;;;;;;;18.78;57.14;101137.09;4982993;28;20038;-74
2023/08/04 06:00:42;;;;;;;55.55;52.22;;;;;;;18.78;57.52;101145.28;4990096;28;20073;-74
2023/08/04 06:03:08;;;;;;;56.55;53.08;;;;;;;18.78;57.49;101148.84;4990195;28;20475;-74
2023/08/04 06:05:33;;;;;;;58.45;54.97;;;;;;;18.77;57.17;101149.97;4990195;28;20504;-74
2023/08/04 06:07:59;;;;;;;53.60;50.60;;;;;;;18.77;57.28;101149.13;4985815;28;20479;-74
2023/08/04 06:10:24;;;;;;;56.20;53.20;;;;;;;18.77;57.54;101154.59;4996999;28;20597;-74
2023/08/04 06:12:50;;;;;;;57.33;53.78;;;;;;;18.77;57.45;101160.06;4992592;28;20034;-74
2023/08/04 06:15:16;;;;;;;57.35;54.15;;;;;;;18.77;57.57;101166.38;4990624;28;20399;-74
2023/08/04 06:17:42;;;;;;;56.85;53.25;;;;;;;18.77;57.18;101158.16;5005799;28;20487;-74
2023/08/04 06:20:08;;;;;;;57.42;53.88;;;;;;;18.78;57.16;101162.53;4976352;28;20431;-75
2023/08/04 06:22:34;;;;;;;57.78;54.17;;;;;;;18.78;57.19;101159.78;4980881;28;20042;-73
2023/08/04 06:25:00;;;;;;;56.60;53.03;;;;;;;18.78;57.34;101165.25;4982058;28;20092;-74
2023/08/04 06:27:26;;;;;;;55.78;52.97;;;;;;;18.79;57.52;101168.81;4986091;28;20177;-74
2023/08/04 06:29:51;;;;;;;56.88;53.72;;;;;;;18.79;57.32;101171.53;4992271;28;20038;-74
2023/08/04 06:32:17;;;;;;;56.97;53.97;;;;;;;18.79;57.67;101174.28;4991758;28;20482;-74
2023/08/04 06:34:42;;;;;;;56.35;53.45;;;;;;;18.79;57.77;101182.50;4990325;28;20034;-75
2023/08/04 06:37:07;;;;;;;55.88;52.60;;;;;;;18.79;57.42;101187.97;5001847;28;20054;-79
2023/08/04 06:39:33;;;;;;;57.60;54.35;;;;;;;18.79;57.65;101187.97;4990666;28;20491;-74
2023/08/04 06:41:58;;;;;;;54.58;51.60;;;;;;;18.79;57.67;101196.19;5003462;28;20042;-74
2023/08/04 06:44:24;;;;;;;56.08;53.13;;;;;;;18.79;57.85;101193.44;4982885;28;20038;-74
2023/08/04 06:46:49;;;;;;;54.05;51.30;;;;;;;18.78;57.33;101195.38;4981085;28;20077;-75
2023/08/04 06:49:15;;;;;;;56.72;53.70;;;;;;;18.80;57.44;101201.38;4982203;28;20062;-74
2023/08/04 06:51:40;;;;;;;56.60;53.60;;;;;;;18.80;57.78;101190.44;4988912;28;20057;-75
2023/08/04 06:54:05;;;;;;;57.00;54.00;;;;;;;18.81;57.34;101196.72;4987998;28;20030;-75
2023/08/04 06:56:31;;;;;;;54.75;51.80;;;;;;;18.81;57.36;101196.72;4987697;28;20046;-75
2023/08/04 06:58:56;;;;;;;55.05;52.35;;;;;;;18.82;57.50;101201.06;4987441;28;20047;-74
2023/08/04 07:01:21;;;;;;;58.88;55.20;;;;;;;18.81;57.69;101205.75;4988441;28;20117;-75
2023/08/04 07:03:47;;;;;;;55.60;52.90;;;;;;;18.82;57.45;101209.28;4991964;28;20491;-75
2023/08/04 07:06:13;;;;;;;57.13;54.35;;;;;;;18.82;57.48;101206.53;4990284;28;20490;-76
2023/08/04 07:08:40;;;;;;;56.00;53.10;;;;;;;18.83;57.64;101216.41;4982854;28;20490;-75
2023/08/04 07:11:13;;;;;;;54.85;52.20;;;;;;;18.84;57.39;101211.75;4982064;28;20035;-74
2023/08/04 07:13:38;;;;;;;54.35;51.72;;;;;;;18.84;57.35;101214.47;4984670;28;20034;-73
2023/08/04 07:16:04;;;;;;;54.92;51.95;;;;;;;18.83;57.69;101213.66;4982987;28;20188;-76
2023/08/04 07:18:29;;;;;;;54.85;51.65;;;;;;;18.84;57.18;101223.50;4989330;28;20056;-76
2023/08/04 07:21:06;;;;;;;56.08;53.28;;;;;;;18.84;57.52;101223.50;4986057;28;20459;-76
2023/08/04 07:23:32;;;;;;;57.47;54.42;;;;;;;18.85;57.15;101225.16;4980678;28;20080;-75
2023/08/04 07:25:58;;;;;;;54.47;51.88;;;;;;;18.86;57.40;101217.75;4987041;28;20113;-75
2023/08/04 07:28:23;;;;;;;57.88;54.83;;;;;;;18.86;57.33;101218.56;4981096;28;20521;-79
2023/08/04 07:30:48;;;;;;;56.97;53.95;;;;;;;18.88;57.36;101218.28;4989471;28;20042;-75
2023/08/04 07:33:14;;;;;;;55.40;52.55;;;;;;;18.89;57.03;101225.38;4988462;28;20413;-76
2023/08/04 07:35:39;;;;;;;53.75;51.15;;;;;;;18.89;57.15;101223.47;5006471;28;20034;-76
2023/08/04 07:38:04;;;;;;;54.95;52.28;;;;;;;18.89;57.04;101223.47;4979564;28;20088;-75
2023/08/04 07:40:30;;;;;;;55.75;53.05;;;;;;;18.90;57.24;101227.00;4984075;28;20103;-76
2023/08/04 07:42:55;;;;;;;54.35;51.55;;;;;;;18.91;57.01;101225.94;4988840;28;20542;-76
2023/08/04 07:45:21;;;;;;;55.88;52.90;;;;;;;18.93;57.27;101229.19;4984826;28;20044;-76
2023/08/04 07:47:46;;;;;;;56.50;53.80;;;;;;;18.93;56.86;101232.75;4986432;28;20073;-79
2023/08/04 07:50:11;;;;;;;54.78;52.08;;;;;;;18.95;57.40;101225.06;4980620;28;20038;-81
2023/08/04 07:52:37;;;;;;;55.72;52.88;;;;;;;18.96;56.79;101231.34;4983326;28;20035;-76
2023/08/04 07:55:02;;;;;;;54.80;52.05;;;;;;;18.97;56.72;101233.78;4991228;28;20427;-75
2023/08/04 07:57:28;;;;;;;57.55;54.55;;;;;;;18.99;57.31;101239.00;4981222;28;20045;-76
2023/08/04 07:59:54;;;;;;;57.28;54.17;;;;;;;18.99;56.95;101241.72;4982176;28;20034;-76
2023/08/04 08:02:19;;;;;;;58.78;55.88;;;;;;;19.00;57.01;101241.44;4999370;28;20038;-75
2023/08/04 08:04:44;;;;;;;56.58;53.80;;;;;;;19.01;57.41;101243.06;4980062;28;20038;-75
2023/08/04 08:07:10;;;;;;;56.03;52.88;;;;;;;19.04;56.98;101244.41;4988236;28;20050;-78
2023/08/04 08:09:35;;;;;;;59.40;56.30;;;;;;;19.05;57.40;101251.53;4984915;28;20042;-76
2023/08/04 08:12:01;;;;;;;57.75;54.65;;;;;;;19.06;57.40;101242.22;5003718;28;20104;-77
2023/08/04 08:14:26;;;;;;;57.50;54.45;;;;;;;19.09;57.24;101246.28;5006634;28;20076;-75
2023/08/04 08:16:52;;;;;;;54.60;52.03;;;;;;;19.09;57.08;101255.31;4971470;28;20055;-75
2023/08/04 08:19:17;;;;;;;58.00;54.67;;;;;;;19.10;57.49;101251.50;4988280;28;20043;-75
2023/08/04 08:21:42;;;;;;;57.60;54.22;;;;;;;19.11;57.40;101246.84;4988259;28;20640;-72
2023/08/04 08:24:09;;;;;;;56.97;54.10;;;;;;;19.12;57.74;101256.66;4988646;28;20071;-73
2023/08/04 08:26:34;;;;;;;56.97;53.90;;;;;;;19.12;57.69;101260.22;5005367;28;20046;-75
2023/08/04 08:29:01;;;;;;;57.42;54.35;;;;;;;19.15;58.17;101264.31;4986429;28;21310;-73
2023/08/04 08:31:27;;;;;;;58.92;55.90;;;;;;;19.17;58.41;101265.66;4991304;28;20058;-78
2023/08/04 08:33:52;;;;;;;56.53;53.38;;;;;;;19.21;58.29;101272.19;4998422;28;20035;-73
2023/08/04 08:36:19;;;;;;;56.78;53.17;;;;;;;19.24;58.35;101271.63;4989978;28;20042;-77
2023/08/04 08:38:44;;;;;;;56.00;53.30;;;;;;;19.26;58.33;101268.59;4979935;28;20038;-75
2023/08/04 08:41:11;;;;;;;57.20;54.30;;;;;;;19.30;58.35;101268.81;4977244;28;20041;-72
2023/08/04 08:43:37;;;;;;;58.80;55.85;;;;;;;19.33;58.67;101277.31;4978073;28;20077;-72
2023/08/04 08:46:03;;;;;;;57.35;54.45;;;;;;;19.36;58.69;101281.38;5004885;28;20038;-72
2023/08/04 08:48:37;;;;;;;58.60;55.63;;;;;;;19.40;58.75;101285.16;4989719;28;20046;-73
2023/08/04 08:51:11;;;;;;;58.20;55.10;;;;;;;19.41;58.84;101281.34;4970887;28;20027;-79
2023/08/04 08:53:37;;;;;;;58.97;55.85;;;;;;;19.43;59.16;101276.38;4976202;28;20034;-75
2023/08/04 08:56:03;;;;;;;57.63;54.83;;;;;;;19.44;59.17;101284.31;4971762;28;20601;-74
2023/08/04 08:58:31;;;;;;;60.53;57.22;;;;;;;19.49;59.44;101288.09;4982817;28;20049;-70
2023/08/04 09:00:56;;;;;;;57.78;54.97;;;;;;;19.52;59.41;101285.59;4986151;28;20045;-69
2023/08/04 09:03:22;;;;;;;59.28;56.33;;;;;;;19.54;58.90;101283.38;4987278;28;20034;-70
2023/08/04 09:05:48;;;;;;;57.53;54.58;;;;;;;19.56;58.95;101283.91;4987150;28;20521;-73
2023/08/04 09:08:13;;;;;;;58.03;55.28;;;;;;;19.60;59.22;101290.44;4988980;28;20385;-75
2023/08/04 09:10:39;;;;;;;63.22;59.83;;;;;;;19.65;58.85;101297.78;4996493;28;20041;-73
2023/08/04 09:13:08;;;;;;;59.03;56.22;;;;;;;19.69;59.05;101292.59;5011207;28;20117;-71
2023/08/04 09:15:35;;;;;;;62.17;58.97;;;;;;;19.72;59.06;101292.81;4986603;28;20050;-72
2023/08/04 09:18:06;;;;;;;59.63;56.15;;;;;;;19.76;59.01;101293.06;4985601;28;20505;-72
2023/08/04 09:20:32;;;;;;;61.13;58.13;;;;;;;19.78;59.34;101305.38;4989626;28;20034;-71
2023/08/04 09:22:58;;;;;;;58.80;55.92;;;;;;;19.81;59.36;101295.75;4984575;28;20368;-75
2023/08/04 09:25:23;;;;;;;63.90;60.63;;;;;;;19.84;58.77;101306.94;4981573;28;20050;-72
2023/08/04 09:27:51;;;;;;;60.78;57.58;;;;;;;19.85;59.03;101303.06;4983994;28;20034;-67
2023/08/04 09:30:18;;;;;;;59.67;56.47;;;;;;;19.88;58.77;101297.03;4979547;28;20027;-70
2023/08/04 09:32:50;;;;;;;61.28;58.25;;;;;;;19.92;58.92;101301.94;4988830;28;20141;-69
2023/08/04 09:35:16;;;;;;;59.83;57.00;;;;;;;19.94;59.20;101305.19;4991277;28;20034;-74
2023/08/04 09:37:42;;;;;;;60.53;57.42;;;;;;;19.95;59.08;101307.63;4988659;28;20038;-73
2023/08/04 09:40:19;;;;;;;58.38;55.50;;;;;;;19.98;59.18;101300.75;4975412;28;20035;-69
2023/08/04 09:42:46;;;;;;;61.25;58.35;;;;;;;20.01;58.71;101305.66;4976754;28;20065;-72
2023/08/04 09:45:15;;;;;;;61.55;58.25;;;;;;;20.03;58.86;101306.16;4990463;28;20030;-69
2023/08/04 09:47:46;;;;;;;68.55;65.18;;;;;;;20.05;59.05;101303.94;4981161;28;20069;-70
2023/08/04 09:50:12;;;;;;;69.90;66.35;;;;;;;20.04;59.10;101305.88;4983714;28;20034;-70
2023/08/04 09:52:37;;;;;;;71.25;67.75;;;;;;;20.05;59.15;101302.03;4987376;28;20035;-68
2023/08/04 09:55:08;;;;;;;70.25;66.55;;;;;;;20.05;59.19;101307.50;4986848;28;20077;-70
2023/08/04 09:57:34;;;;;;;69.07;65.72;;;;;;;20.07;59.06;101305.28;4975273;28;20165;-73
2023/08/04 10:00:00;;;;;;;68.60;65.00;;;;;;;20.10;58.99;101306.63;4990667;28;20113;-70
2023/08/04 10:02:25;;;;;;;71.13;67.22;;;;;;;20.12;58.69;101298.94;4994568;28;20046;-71
2023/08/04 10:04:51;;;;;;;70.00;66.50;;;;;;;20.15;58.70;101301.09;4994822;28;20026;-70
2023/08/04 10:07:18;;;;;;;71.70;68.30;;;;;;;20.16;58.77;101305.47;4990040;28;20129;-71
2023/08/04 10:09:44;;;;;;;72.25;68.75;;;;;;;20.17;59.16;101298.88;4984367;28;20034;-70
2023/08/04 10:12:11;;;;;;;71.18;67.95;;;;;;;20.20;58.76;101303.75;4982321;28;20026;-73
2023/08/04 10:14:37;;;;;;;74.55;70.85;;;;;;;20.22;59.08;101308.97;4992208;28;20080;-69
2023/08/04 10:17:03;;;;;;;72.68;69.10;;;;;;;20.25;59.07;101316.59;4990593;28;20474;-71
2023/08/04 10:19:29;;;;;;;74.47;70.70;;;;;;;20.27;58.52;101312.44;4984504;28;20447;-79
2023/08/04 10:22:04;;;;;;;74.18;70.57;;;;;;;20.32;58.46;101315.13;5001741;28;20076;-70
2023/08/04 10:24:29;;;;;;;72.82;69.30;;;;;;;20.36;58.27;101315.38;4989136;28;20475;-77
2023/08/04 10:26:54;;;;;;;73.82;70.53;;;;;;;20.40;58.27;101307.34;4983591;28;20049;-74
2023/08/04 10:29:32;;;;;;;74.50;70.90;;;;;;;20.44;58.61;101314.72;4989744;28;20466;-76
2023/08/04 10:31:58;;;;;;;76.40;72.43;;;;;;;20.49;58.02;101311.91;4990653;28;20065;-75
2023/08/04 10:34:27;;;;;;;74.43;70.65;;;;;;;20.54;58.22;101311.00;4990791;28;20034;-74
2023/08/04 10:37:27;;;;;;;;;;;;;;;20.59;58.35;101335.69;4978913;28;20030;-71
2023/08/04 10:39:55;;;;;;;68.32;65.22;;;;;;;20.60;58.05;101336.47;4978482;28;19968;-73
2023/08/04 10:42:26;;;;;;;71.78;68.40;;;;;;;20.61;58.26;101344.41;4982878;28;20054;-73
2023/08/04 10:45:03;;;;;;;73.15;69.55;;;;;;;20.65;57.71;101333.66;5001451;28;20549;-72
2023/08/04 10:47:51;;;;;;;74.20;70.75;;;;;;;20.67;57.79;101337.75;4980580;28;20042;-73
2023/08/04 10:50:16;;;;;;;71.65;68.38;;;;;;;20.72;58.13;101340.41;4998908;28;20030;-74
2023/08/04 10:52:42;;;;;;;74.88;71.15;;;;;;;20.75;58.06;101336.25;4986594;28;20032;-74
2023/08/04 10:55:11;;;;;;;74.97;71.25;;;;;;;20.80;58.06;101338.13;4986646;28;20488;-73
2023/08/04 10:57:38;;;;;;;74.45;70.85;;;;;;;20.83;57.71;101340.28;4980105;28;20442;-73
2023/08/04 11:00:05;;;;;;;76.50;72.82;;;;;;;20.86;57.73;101337.72;4980038;28;20049;-74
2023/08/04 11:02:32;;;;;;;75.32;71.72;;;;;;;20.87;57.87;101339.38;4996416;28;20077;-75
2023/08/04 11:04:57;;;;;;;73.85;70.35;;;;;;;20.92;58.07;101346.72;4990001;28;20034;-73